Terminal Aerodrome Forecast
Issued by NWS

Home | Current Version | Previous Version | Text Only | Print | Product List | Glossary On
Versions: 1 2 3 4 5 6 7 8 9 10 11 12 13 14 15 16 17 18 19 20 21 22 23 24 25 26 27 28 29 30
000
FTUS41 KBUF 280538
TAFJHW
TAF
KJHW 280538Z 2806/2906 00000KT P6SM FEW250
      TEMPO 2808/2812 2SM BR
     FM281500 VRB03KT P6SM BKN060
     FM281900 32005KT P6SM VCSH BKN090
     FM290000 VRB03KT P6SM SCT050 BKN200
      AMD LTD TO CLD VIS AND WIND=

USA.gov is the U.S. government's official web portal to all federal, state and local government web resources and services.